sensor_id;sensor_type;location;lat;lon;timestamp;temperature;humidity
63202;DHT22;49296;48.188;11.566;2022-09-09T00:00:44;18.89;60.82
63202;DHT22;49296;48.188;11.566;2022-09-09T00:03:14;18.74;61.32
63202;DHT22;49296;48.188;11.566;2022-09-09T00:05:44;18.74;61.35
63202;DHT22;49296;48.188;11.566;2022-09-09T00:08:18;18.85;61.07
63202;DHT22;49296;48.188;11.566;2022-09-09T00:10:45;18.70;61.67
63202;DHT22;49296;48.188;11.566;2022-09-09T00:13:16;18.70;61.50
63202;DHT22;49296;48.188;11.566;2022-09-09T00:15:47;18.74;61.55
63202;DHT22;49296;48.188;11.566;2022-09-09T00:18:17;18.84;61.11
63202;DHT22;49296;48.188;11.566;2022-09-09T00:20:47;18.83;61.31
63202;DHT22;49296;48.188;11.566;2022-09-09T00:23:20;18.85;61.34
63202;DHT22;49296;48.188;11.566;2022-09-09T00:25:53;18.98;61.10
63202;DHT22;49296;48.188;11.566;2022-09-09T00:28:22;18.98;61.00
63202;DHT22;49296;48.188;11.566;2022-09-09T00:30:49;18.83;61.40
63202;DHT22;49296;48.188;11.566;2022-09-09T00:33:16;18.68;61.90
63202;DHT22;49296;48.188;11.566;2022-09-09T00:35:44;18.80;61.53
63202;DHT22;49296;48.188;11.566;2022-09-09T00:38:12;18.85;61.44
63202;DHT22;49296;48.188;11.566;2022-09-09T00:40:43;18.89;61.20
63202;DHT22;49296;48.188;11.566;2022-09-09T00:43:20;18.75;61.12
63202;DHT22;49296;48.188;11.566;2022-09-09T00:45:52;18.98;60.51
63202;DHT22;49296;48.188;11.566;2022-09-09T00:48:22;18.95;60.71
63202;DHT22;49296;48.188;11.566;2022-09-09T00:50:55;19.15;60.52
63202;DHT22;49296;48.188;11.566;2022-09-09T00:53:28;19.11;60.14
63202;DHT22;49296;48.188;11.566;2022-09-09T00:56:00;19.11;59.70
63202;DHT22;49296;48.188;11.566;2022-09-09T00:58:30;19.25;59.85
63202;DHT22;49296;48.188;11.566;2022-09-09T01:00:58;19.27;59.97
63202;DHT22;49296;48.188;11.566;2022-09-09T01:03:31;19.20;59.88
63202;DHT22;49296;48.188;11.566;2022-09-09T01:06:00;19.04;60.54
63202;DHT22;49296;48.188;11.566;2022-09-09T01:08:35;19.01;60.71
63202;DHT22;49296;48.188;11.566;2022-09-09T01:11:05;18.80;61.17
63202;DHT22;49296;48.188;11.566;2022-09-09T01:13:35;18.72;61.52
63202;DHT22;49296;48.188;11.566;2022-09-09T01:16:03;18.70;61.44
63202;DHT22;49296;48.188;11.566;2022-09-09T01:18:32;18.83;61.14
63202;DHT22;49296;48.188;11.566;2022-09-09T01:21:03;18.97;60.86
63202;DHT22;49296;48.188;11.566;2022-09-09T01:23:39;19.08;60.87
63202;DHT22;49296;48.188;11.566;2022-09-09T01:26:14;19.01;61.33
63202;DHT22;49296;48.188;11.566;2022-09-09T01:28:42;19.12;60.92
63202;DHT22;49296;48.188;11.566;2022-09-09T01:31:11;19.14;60.38
63202;DHT22;49296;48.188;11.566;2022-09-09T01:33:38;19.19;60.14
63202;DHT22;49296;48.188;11.566;2022-09-09T01:36:05;19.25;60.12
63202;DHT22;49296;48.188;11.566;2022-09-09T01:38:34;19.32;60.14
63202;DHT22;49296;48.188;11.566;2022-09-09T01:41:00;19.32;60.16
63202;DHT22;49296;48.188;11.566;2022-09-09T01:43:28;19.34;60.23
63202;DHT22;49296;48.188;11.566;2022-09-09T01:45:55;19.32;60.37
63202;DHT22;49296;48.188;11.566;2022-09-09T01:48:22;19.34;60.40
63202;DHT22;49296;48.188;11.566;2022-09-09T01:50:49;19.34;60.35
63202;DHT22;49296;48.188;11.566;2022-09-09T01:53:16;19.34;60.49
63202;DHT22;49296;48.188;11.566;2022-09-09T01:55:44;19.30;60.77
63202;DHT22;49296;48.188;11.566;2022-09-09T01:58:16;19.27;60.89
63202;DHT22;49296;48.188;11.566;2022-09-09T02:00:48;19.23;61.09
63202;DHT22;49296;48.188;11.566;2022-09-09T02:03:19;19.23;61.17
63202;DHT22;49296;48.188;11.566;2022-09-09T02:05:49;19.26;61.20
63202;DHT22;49296;48.188;11.566;2022-09-09T02:08:23;19.14;61.62
63202;DHT22;49296;48.188;11.566;2022-09-09T02:10:53;19.15;61.58
63202;DHT22;49296;48.188;11.566;2022-09-09T02:13:21;19.15;61.65
63202;DHT22;49296;48.188;11.566;2022-09-09T02:15:51;19.12;61.77
63202;DHT22;49296;48.188;11.566;2022-09-09T02:18:19;19.12;62.11
63202;DHT22;49296;48.188;11.566;2022-09-09T02:20:47;19.15;61.84
63202;DHT22;49296;48.188;11.566;2022-09-09T02:23:14;19.14;61.92
63202;DHT22;49296;48.188;11.566;2022-09-09T02:25:41;19.02;62.41
63202;DHT22;49296;48.188;11.566;2022-09-09T02:28:08;19.14;62.10
63202;DHT22;49296;48.188;11.566;2022-09-09T02:30:35;19.11;62.17
63202;DHT22;49296;48.188;11.566;2022-09-09T02:33:04;19.14;62.21
63202;DHT22;49296;48.188;11.566;2022-09-09T02:35:33;19.08;62.35
63202;DHT22;49296;48.188;11.566;2022-09-09T02:38:04;19.01;62.30
63202;DHT22;49296;48.188;11.566;2022-09-09T02:40:31;19.02;62.38
63202;DHT22;49296;48.188;11.566;2022-09-09T02:42:58;19.05;62.35
63202;DHT22;49296;48.188;11.566;2022-09-09T02:45:25;19.01;62.28
63202;DHT22;49296;48.188;11.566;2022-09-09T02:47:55;18.98;62.36
63202;DHT22;49296;48.188;11.566;2022-09-09T02:50:28;18.91;62.70
63202;DHT22;49296;48.188;11.566;2022-09-09T02:53:01;18.92;62.72
63202;DHT22;49296;48.188;11.566;2022-09-09T02:55:34;18.91;62.81
63202;DHT22;49296;48.188;11.566;2022-09-09T02:58:03;18.84;62.99
63202;DHT22;49296;48.188;11.566;2022-09-09T03:00:31;18.74;63.22
63202;DHT22;49296;48.188;11.566;2022-09-09T03:02:58;18.71;63.26
63202;DHT22;49296;48.188;11.566;2022-09-09T03:05:24;18.68;63.27
63202;DHT22;49296;48.188;11.566;2022-09-09T03:07:52;18.68;63.25
63202;DHT22;49296;48.188;11.566;2022-09-09T03:10:19;18.74;63.26
63202;DHT22;49296;48.188;11.566;2022-09-09T03:12:45;18.78;63.16
63202;DHT22;49296;48.188;11.566;2022-09-09T03:15:12;18.77;63.17
63202;DHT22;49296;48.188;11.566;2022-09-09T03:17:39;18.85;63.10
63202;DHT22;49296;48.188;11.566;2022-09-09T03:20:06;18.95;62.67
63202;DHT22;49296;48.188;11.566;2022-09-09T03:22:33;18.88;62.82
63202;DHT22;49296;48.188;11.566;2022-09-09T03:25:01;18.94;62.73
63202;DHT22;49296;48.188;11.566;2022-09-09T03:27:28;18.85;62.92
63202;DHT22;49296;48.188;11.566;2022-09-09T03:29:54;18.84;62.88
63202;DHT22;49296;48.188;11.566;2022-09-09T03:32:21;18.83;62.95
63202;DHT22;49296;48.188;11.566;2022-09-09T03:34:50;18.87;62.85
63202;DHT22;49296;48.188;11.566;2022-09-09T03:37:17;18.87;62.83
63202;DHT22;49296;48.188;11.566;2022-09-09T03:39:43;18.92;62.83
63202;DHT22;49296;48.188;11.566;2022-09-09T03:42:13;18.89;62.90
63202;DHT22;49296;48.188;11.566;2022-09-09T03:44:43;18.87;63.05
63202;DHT22;49296;48.188;11.566;2022-09-09T03:47:11;18.81;63.34
63202;DHT22;49296;48.188;11.566;2022-09-09T03:49:38;18.65;63.75
63202;DHT22;49296;48.188;11.566;2022-09-09T03:52:04;18.72;63.72
63202;DHT22;49296;48.188;11.566;2022-09-09T03:54:30;18.77;63.52
63202;DHT22;49296;48.188;11.566;2022-09-09T03:56:57;18.77;63.53
63202;DHT22;49296;48.188;11.566;2022-09-09T03:59:25;18.80;63.49
63202;DHT22;49296;48.188;11.566;2022-09-09T04:01:51;18.78;63.55
63202;DHT22;49296;48.188;11.566;2022-09-09T04:04:18;18.74;63.69
63202;DHT22;49296;48.188;11.566;2022-09-09T04:06:45;18.74;63.78
63202;DHT22;49296;48.188;11.566;2022-09-09T04:09:13;18.59;64.21
63202;DHT22;49296;48.188;11.566;2022-09-09T04:11:39;18.56;64.47
63202;DHT22;49296;48.188;11.566;2022-09-09T04:14:06;18.60;64.19
63202;DHT22;49296;48.188;11.566;2022-09-09T04:16:33;18.72;63.87
63202;DHT22;49296;48.188;11.566;2022-09-09T04:19:02;18.77;63.68
63202;DHT22;49296;48.188;11.566;2022-09-09T04:21:29;18.70;63.83
63202;DHT22;49296;48.188;11.566;2022-09-09T04:23:56;18.77;63.84
63202;DHT22;49296;48.188;11.566;2022-09-09T04:26:22;18.68;64.11
63202;DHT22;49296;48.188;11.566;2022-09-09T04:28:49;18.72;63.93
63202;DHT22;49296;48.188;11.566;2022-09-09T04:31:16;18.67;63.83
63202;DHT22;49296;48.188;11.566;2022-09-09T04:33:44;18.64;63.92
63202;DHT22;49296;48.188;11.566;2022-09-09T04:36:11;18.63;63.97
63202;DHT22;49296;48.188;11.566;2022-09-09T04:38:37;18.61;63.67
63202;DHT22;49296;48.188;11.566;2022-09-09T04:41:04;18.68;63.64
63202;DHT22;49296;48.188;11.566;2022-09-09T04:43:31;18.60;64.07
63202;DHT22;49296;48.188;11.566;2022-09-09T04:45:57;18.57;64.14
63202;DHT22;49296;48.188;11.566;2022-09-09T04:48:24;18.70;63.96
63202;DHT22;49296;48.188;11.566;2022-09-09T04:50:55;18.59;64.24
63202;DHT22;49296;48.188;11.566;2022-09-09T04:53:22;18.61;64.18
63202;DHT22;49296;48.188;11.566;2022-09-09T04:55:50;18.70;64.00
63202;DHT22;49296;48.188;11.566;2022-09-09T04:58:16;18.61;64.17
63202;DHT22;49296;48.188;11.566;2022-09-09T05:00:43;18.71;63.97
63202;DHT22;49296;48.188;11.566;2022-09-09T05:03:09;18.53;64.45
63202;DHT22;49296;48.188;11.566;2022-09-09T05:05:37;18.63;64.34
63202;DHT22;49296;48.188;11.566;2022-09-09T05:08:06;18.70;64.18
63202;DHT22;49296;48.188;11.566;2022-09-09T05:10:33;18.70;64.09
63202;DHT22;49296;48.188;11.566;2022-09-09T05:13:00;18.64;64.26
63202;DHT22;49296;48.188;11.566;2022-09-09T05:15:27;18.68;64.30
63202;DHT22;49296;48.188;11.566;2022-09-09T05:17:56;18.54;64.74
63202;DHT22;49296;48.188;11.566;2022-09-09T05:20:22;18.61;64.68
63202;DHT22;49296;48.188;11.566;2022-09-09T05:22:52;18.60;64.74
63202;DHT22;49296;48.188;11.566;2022-09-09T05:25:20;18.57;64.83
63202;DHT22;49296;48.188;11.566;2022-09-09T05:27:47;18.56;64.74
63202;DHT22;49296;48.188;11.566;2022-09-09T05:30:14;18.60;64.52
63202;DHT22;49296;48.188;11.566;2022-09-09T05:32:41;18.53;64.65
63202;DHT22;49296;48.188;11.566;2022-09-09T05:35:08;18.53;64.54
63202;DHT22;49296;48.188;11.566;2022-09-09T05:37:35;18.57;64.46
63202;DHT22;49296;48.188;11.566;2022-09-09T05:40:01;18.49;64.59
63202;DHT22;49296;48.188;11.566;2022-09-09T05:42:31;18.52;64.49
63202;DHT22;49296;48.188;11.566;2022-09-09T05:44:57;18.56;64.47
63202;DHT22;49296;48.188;11.566;2022-09-09T05:47:24;18.65;64.23
63202;DHT22;49296;48.188;11.566;2022-09-09T05:49:52;18.63;64.16
63202;DHT22;49296;48.188;11.566;2022-09-09T05:52:19;18.52;64.23
63202;DHT22;49296;48.188;11.566;2022-09-09T05:54:45;18.49;64.31
63202;DHT22;49296;48.188;11.566;2022-09-09T05:57:12;18.54;64.27
63202;DHT22;49296;48.188;11.566;2022-09-09T05:59:40;18.59;64.15
63202;DHT22;49296;48.188;11.566;2022-09-09T06:02:07;18.63;63.75
63202;DHT22;49296;48.188;11.566;2022-09-09T06:04:34;18.74;63.45
63202;DHT22;49296;48.188;11.566;2022-09-09T06:07:00;18.74;63.65
63202;DHT22;49296;48.188;11.566;2022-09-09T06:09:27;18.67;63.87
63202;DHT22;49296;48.188;11.566;2022-09-09T06:11:55;18.64;63.96
63202;DHT22;49296;48.188;11.566;2022-09-09T06:14:22;18.64;63.56
63202;DHT22;49296;48.188;11.566;2022-09-09T06:16:51;18.65;63.69
63202;DHT22;49296;48.188;11.566;2022-09-09T06:19:18;18.68;63.61
63202;DHT22;49296;48.188;11.566;2022-09-09T06:21:45;18.61;64.03
63202;DHT22;49296;48.188;11.566;2022-09-09T06:24:12;18.64;63.86
63202;DHT22;49296;48.188;11.566;2022-09-09T06:26:42;18.60;63.99
63202;DHT22;49296;48.188;11.566;2022-09-09T06:29:09;18.68;63.98
63202;DHT22;49296;48.188;11.566;2022-09-09T06:31:36;18.80;63.58
63202;DHT22;49296;48.188;11.566;2022-09-09T06:34:05;18.80;63.39
63202;DHT22;49296;48.188;11.566;2022-09-09T06:36:33;18.75;63.48
63202;DHT22;49296;48.188;11.566;2022-09-09T06:39:00;18.78;63.42
63202;DHT22;49296;48.188;11.566;2022-09-09T06:41:27;18.83;63.25
63202;DHT22;49296;48.188;11.566;2022-09-09T06:43:54;18.80;63.36
63202;DHT22;49296;48.188;11.566;2022-09-09T06:46:22;18.95;63.04
63202;DHT22;49296;48.188;11.566;2022-09-09T06:48:52;18.80;63.44
63202;DHT22;49296;48.188;11.566;2022-09-09T06:51:22;18.74;63.37
63202;DHT22;49296;48.188;11.566;2022-09-09T06:53:50;18.84;63.26
63202;DHT22;49296;48.188;11.566;2022-09-09T06:56:18;18.77;63.53
63202;DHT22;49296;48.188;11.566;2022-09-09T06:58:46;18.72;63.57
63202;DHT22;49296;48.188;11.566;2022-09-09T07:01:15;18.63;63.81
63202;DHT22;49296;48.188;11.566;2022-09-09T07:03:42;18.64;63.94
63202;DHT22;49296;48.188;11.566;2022-09-09T07:06:09;18.70;63.89
63202;DHT22;49296;48.188;11.566;2022-09-09T07:08:41;18.61;64.24
63202;DHT22;49296;48.188;11.566;2022-09-09T07:11:08;18.64;64.30
63202;DHT22;49296;48.188;11.566;2022-09-09T07:13:35;18.39;64.78
63202;DHT22;49296;48.188;11.566;2022-09-09T07:16:03;18.05;66.68
63202;DHT22;49296;48.188;11.566;2022-09-09T07:18:29;17.50;69.30
63202;DHT22;49296;48.188;11.566;2022-09-09T07:20:56;17.69;69.84
63202;DHT22;49296;48.188;11.566;2022-09-09T07:23:23;17.40;71.11
63202;DHT22;49296;48.188;11.566;2022-09-09T07:25:51;17.64;70.03
63202;DHT22;49296;48.188;11.566;2022-09-09T07:28:18;17.46;70.81
63202;DHT22;49296;48.188;11.566;2022-09-09T07:30:52;17.39;71.48
63202;DHT22;49296;48.188;11.566;2022-09-09T07:33:19;17.56;71.79
63202;DHT22;49296;48.188;11.566;2022-09-09T07:35:46;17.51;72.63
63202;DHT22;49296;48.188;11.566;2022-09-09T07:38:12;17.05;73.77
63202;DHT22;49296;48.188;11.566;2022-09-09T07:40:43;17.15;73.97
63202;DHT22;49296;48.188;11.566;2022-09-09T07:43:12;17.29;73.60
63202;DHT22;49296;48.188;11.566;2022-09-09T07:45:38;17.51;73.25
63202;DHT22;49296;48.188;11.566;2022-09-09T07:48:05;17.67;72.86
63202;DHT22;49296;48.188;11.566;2022-09-09T07:50:32;17.92;72.42
63202;DHT22;49296;48.188;11.566;2022-09-09T07:52:59;18.00;72.90
63202;DHT22;49296;48.188;11.566;2022-09-09T07:55:25;18.08;72.37
63202;DHT22;49296;48.188;11.566;2022-09-09T07:57:52;18.29;71.72
63202;DHT22;49296;48.188;11.566;2022-09-09T08:00:20;18.39;71.28
63202;DHT22;49296;48.188;11.566;2022-09-09T08:02:47;18.29;71.60
63202;DHT22;49296;48.188;11.566;2022-09-09T08:05:14;18.29;71.32
63202;DHT22;49296;48.188;11.566;2022-09-09T08:07:42;18.54;71.08
63202;DHT22;49296;48.188;11.566;2022-09-09T08:10:09;18.70;70.63
63202;DHT22;49296;48.188;11.566;2022-09-09T08:12:35;18.71;70.58
63202;DHT22;49296;48.188;11.566;2022-09-09T08:15:02;18.63;70.81
63202;DHT22;49296;48.188;11.566;2022-09-09T08:17:30;18.71;70.64
63202;DHT22;49296;48.188;11.566;2022-09-09T08:19:58;18.54;71.42
63202;DHT22;49296;48.188;11.566;2022-09-09T08:22:30;18.37;71.71
63202;DHT22;49296;48.188;11.566;2022-09-09T08:24:56;18.46;71.56
63202;DHT22;49296;48.188;11.566;2022-09-09T08:27:23;18.08;72.03
63202;DHT22;49296;48.188;11.566;2022-09-09T08:29:50;18.21;72.19
63202;DHT22;49296;48.188;11.566;2022-09-09T08:32:17;18.24;72.35
63202;DHT22;49296;48.188;11.566;2022-09-09T08:34:45;18.21;72.12
63202;DHT22;49296;48.188;11.566;2022-09-09T08:37:12;18.36;71.81
63202;DHT22;49296;48.188;11.566;2022-09-09T08:39:39;18.30;72.03
63202;DHT22;49296;48.188;11.566;2022-09-09T08:42:17;18.28;71.67
63202;DHT22;49296;48.188;11.566;2022-09-09T08:47:34;18.24;72.09
63202;DHT22;49296;48.188;11.566;2022-09-09T08:50:16;18.22;72.06
63202;DHT22;49296;48.188;11.566;2022-09-09T08:52:49;18.39;72.02
63202;DHT22;49296;48.188;11.566;2022-09-09T08:55:20;18.40;71.94
63202;DHT22;49296;48.188;11.566;2022-09-09T08:57:48;18.50;70.32
63202;DHT22;49296;48.188;11.566;2022-09-09T09:00:16;18.64;69.86
63202;DHT22;49296;48.188;11.566;2022-09-09T09:02:45;18.80;69.55
63202;DHT22;49296;48.188;11.566;2022-09-09T09:05:18;18.89;69.38
63202;DHT22;49296;48.188;11.566;2022-09-09T09:07:52;18.99;69.02
63202;DHT22;49296;48.188;11.566;2022-09-09T09:10:25;19.12;69.31
63202;DHT22;49296;48.188;11.566;2022-09-09T09:12:56;19.22;70.59
63202;DHT22;49296;48.188;11.566;2022-09-09T09:15:25;19.25;68.23
63202;DHT22;49296;48.188;11.566;2022-09-09T09:17:53;19.33;66.31
63202;DHT22;49296;48.188;11.566;2022-09-09T09:20:23;19.09;67.34
63202;DHT22;49296;48.188;11.566;2022-09-09T09:22:52;19.02;68.15
63202;DHT22;49296;48.188;11.566;2022-09-09T09:25:21;19.08;67.83
63202;DHT22;49296;48.188;11.566;2022-09-09T09:27:49;19.29;66.34
63202;DHT22;49296;48.188;11.566;2022-09-09T09:30:20;19.51;66.37
63202;DHT22;49296;48.188;11.566;2022-09-09T09:32:51;19.67;67.53
63202;DHT22;49296;48.188;11.566;2022-09-09T09:35:19;19.82;67.49
63202;DHT22;49296;48.188;11.566;2022-09-09T09:37:47;19.95;67.60
63202;DHT22;49296;48.188;11.566;2022-09-09T09:40:14;19.94;66.66
63202;DHT22;49296;48.188;11.566;2022-09-09T09:42:48;19.57;67.71
63202;DHT22;49296;48.188;11.566;2022-09-09T09:45:16;19.64;67.33
63202;DHT22;49296;48.188;11.566;2022-09-09T09:47:44;19.63;67.92
63202;DHT22;49296;48.188;11.566;2022-09-09T09:50:18;19.56;66.70
63202;DHT22;49296;48.188;11.566;2022-09-09T09:52:54;19.23;68.02
63202;DHT22;49296;48.188;11.566;2022-09-09T09:55:44;19.23;68.28
63202;DHT22;49296;48.188;11.566;2022-09-09T09:58:14;19.08;67.20
63202;DHT22;49296;48.188;11.566;2022-09-09T10:00:47;19.06;66.91
63202;DHT22;49296;48.188;11.566;2022-09-09T10:03:19;18.84;66.26
63202;DHT22;49296;48.188;11.566;2022-09-09T10:05:46;18.85;66.01
63202;DHT22;49296;48.188;11.566;2022-09-09T10:08:15;18.72;65.75
63202;DHT22;49296;48.188;11.566;2022-09-09T10:10:46;18.43;65.59
63202;DHT22;49296;48.188;11.566;2022-09-09T10:13:15;18.39;66.02
63202;DHT22;49296;48.188;11.566;2022-09-09T10:15:48;18.49;65.96
63202;DHT22;49296;48.188;11.566;2022-09-09T10:18:22;18.54;66.32
63202;DHT22;49296;48.188;11.566;2022-09-09T10:20:54;18.71;65.72
63202;DHT22;49296;48.188;11.566;2022-09-09T10:23:33;18.70;66.42
63202;DHT22;49296;48.188;11.566;2022-09-09T10:26:11;18.75;66.06
63202;DHT22;49296;48.188;11.566;2022-09-09T10:28:49;19.05;66.47
63202;DHT22;49296;48.188;11.566;2022-09-09T10:31:20;18.98;66.15
63202;DHT22;49296;48.188;11.566;2022-09-09T10:33:51;18.99;66.06
63202;DHT22;49296;48.188;11.566;2022-09-09T10:36:23;19.18;66.00
63202;DHT22;49296;48.188;11.566;2022-09-09T10:38:54;19.29;66.16
63202;DHT22;49296;48.188;11.566;2022-09-09T10:41:26;19.45;65.76
63202;DHT22;49296;48.188;11.566;2022-09-09T10:46:53;19.68;64.46
63202;DHT22;49296;48.188;11.566;2022-09-09T10:49:27;19.79;64.04
63202;DHT22;49296;48.188;11.566;2022-09-09T10:51:57;19.81;64.17
63202;DHT22;49296;48.188;11.566;2022-09-09T10:54:34;19.49;64.97
63202;DHT22;49296;48.188;11.566;2022-09-09T10:57:05;19.61;65.15
63202;DHT22;49296;48.188;11.566;2022-09-09T10:59:35;19.70;64.65
63202;DHT22;49296;48.188;11.566;2022-09-09T11:02:07;19.74;63.98
63202;DHT22;49296;48.188;11.566;2022-09-09T11:04:38;19.50;64.16
63202;DHT22;49296;48.188;11.566;2022-09-09T11:07:06;19.60;63.79
63202;DHT22;49296;48.188;11.566;2022-09-09T11:09:38;19.64;63.76
63202;DHT22;49296;48.188;11.566;2022-09-09T11:12:13;19.79;62.57
63202;DHT22;49296;48.188;11.566;2022-09-09T11:14:48;19.78;62.27
63202;DHT22;49296;48.188;11.566;2022-09-09T11:17:18;19.88;62.15
63202;DHT22;49296;48.188;11.566;2022-09-09T11:19:52;19.95;61.82
63202;DHT22;49296;48.188;11.566;2022-09-09T11:22:30;20.26;61.54
63202;DHT22;49296;48.188;11.566;2022-09-09T11:25:05;20.50;61.21
63202;DHT22;49296;48.188;11.566;2022-09-09T11:27:36;20.28;60.05
63202;DHT22;49296;48.188;11.566;2022-09-09T11:30:16;20.15;58.62
63202;DHT22;49296;48.188;11.566;2022-09-09T11:32:54;20.29;58.92
63202;DHT22;49296;48.188;11.566;2022-09-09T11:35:29;20.46;58.81
63202;DHT22;49296;48.188;11.566;2022-09-09T11:38:04;20.13;59.01
63202;DHT22;49296;48.188;11.566;2022-09-09T11:40:34;20.25;59.76
63202;DHT22;49296;48.188;11.566;2022-09-09T11:43:02;20.41;59.60
63202;DHT22;49296;48.188;11.566;2022-09-09T11:45:30;20.56;59.37
63202;DHT22;49296;48.188;11.566;2022-09-09T11:47:58;20.98;59.63
63202;DHT22;49296;48.188;11.566;2022-09-09T11:50:30;21.33;59.03
63202;DHT22;49296;48.188;11.566;2022-09-09T11:55:59;21.26;56.67
63202;DHT22;49296;48.188;11.566;2022-09-09T11:58:27;21.03;57.52
63202;DHT22;49296;48.188;11.566;2022-09-09T12:00:58;20.98;58.23
63202;DHT22;49296;48.188;11.566;2022-09-09T12:03:32;20.67;58.54
63202;DHT22;49296;48.188;11.566;2022-09-09T12:06:08;20.53;58.62
63202;DHT22;49296;48.188;11.566;2022-09-09T12:08:36;20.60;58.23
63202;DHT22;49296;48.188;11.566;2022-09-09T12:11:04;20.54;58.87
63202;DHT22;49296;48.188;11.566;2022-09-09T12:13:32;20.54;58.54
63202;DHT22;49296;48.188;11.566;2022-09-09T12:15:59;20.54;58.67
63202;DHT22;49296;48.188;11.566;2022-09-09T12:18:31;20.33;58.99
63202;DHT22;49296;48.188;11.566;2022-09-09T12:21:00;20.22;59.52
63202;DHT22;49296;48.188;11.566;2022-09-09T12:23:33;20.25;59.73
63202;DHT22;49296;48.188;11.566;2022-09-09T12:26:11;20.09;60.00
63202;DHT22;49296;48.188;11.566;2022-09-09T12:28:42;20.01;60.40
63202;DHT22;49296;48.188;11.566;2022-09-09T12:31:12;20.05;60.35
63202;DHT22;49296;48.188;11.566;2022-09-09T12:36:11;20.34;59.75
63202;DHT22;49296;48.188;11.566;2022-09-09T12:38:39;20.47;59.80
63202;DHT22;49296;48.188;11.566;2022-09-09T12:41:05;20.44;59.98
63202;DHT22;49296;48.188;11.566;2022-09-09T12:43:33;20.60;59.32
63202;DHT22;49296;48.188;11.566;2022-09-09T12:46:00;20.77;59.21
63202;DHT22;49296;48.188;11.566;2022-09-09T12:48:30;20.91;58.81
63202;DHT22;49296;48.188;11.566;2022-09-09T12:50:57;20.98;59.14
63202;DHT22;49296;48.188;11.566;2022-09-09T12:53:25;20.91;58.65
63202;DHT22;49296;48.188;11.566;2022-09-09T12:55:54;21.02;58.84
63202;DHT22;49296;48.188;11.566;2022-09-09T12:58:22;20.94;58.14
63202;DHT22;49296;48.188;11.566;2022-09-09T13:00:50;20.99;58.11
63202;DHT22;49296;48.188;11.566;2022-09-09T13:03:18;20.95;57.83
63202;DHT22;49296;48.188;11.566;2022-09-09T13:05:45;21.15;57.62
63202;DHT22;49296;48.188;11.566;2022-09-09T13:08:13;21.08;58.66
63202;DHT22;49296;48.188;11.566;2022-09-09T13:10:41;20.92;58.78
63202;DHT22;49296;48.188;11.566;2022-09-09T13:13:13;20.96;58.77
63202;DHT22;49296;48.188;11.566;2022-09-09T13:15:40;20.91;58.85
63202;DHT22;49296;48.188;11.566;2022-09-09T13:18:15;20.84;59.14
63202;DHT22;49296;48.188;11.566;2022-09-09T13:20:45;20.91;58.73
63202;DHT22;49296;48.188;11.566;2022-09-09T13:23:12;20.88;59.19
63202;DHT22;49296;48.188;11.566;2022-09-09T13:25:38;20.81;59.08
63202;DHT22;49296;48.188;11.566;2022-09-09T13:28:05;20.87;59.42
63202;DHT22;49296;48.188;11.566;2022-09-09T13:30:54;21.37;58.75
63202;DHT22;49296;48.188;11.566;2022-09-09T13:33:28;21.49;58.26
63202;DHT22;49296;48.188;11.566;2022-09-09T13:35:55;21.70;58.17
63202;DHT22;49296;48.188;11.566;2022-09-09T13:38:22;21.91;57.02
63202;DHT22;49296;48.188;11.566;2022-09-09T13:40:57;21.78;56.51
63202;DHT22;49296;48.188;11.566;2022-09-09T13:43:27;21.78;57.04
63202;DHT22;49296;48.188;11.566;2022-09-09T13:45:54;21.94;56.61
63202;DHT22;49296;48.188;11.566;2022-09-09T13:48:21;21.79;57.07
63202;DHT22;49296;48.188;11.566;2022-09-09T13:50:54;21.62;57.41
63202;DHT22;49296;48.188;11.566;2022-09-09T13:53:21;21.51;57.67
63202;DHT22;49296;48.188;11.566;2022-09-09T13:55:47;21.50;57.35
63202;DHT22;49296;48.188;11.566;2022-09-09T13:58:14;21.51;57.05
63202;DHT22;49296;48.188;11.566;2022-09-09T14:00:42;21.29;56.88
63202;DHT22;49296;48.188;11.566;2022-09-09T14:03:09;21.25;57.41
63202;DHT22;49296;48.188;11.566;2022-09-09T14:05:36;21.10;56.91
63202;DHT22;49296;48.188;11.566;2022-09-09T14:08:04;20.88;57.79
63202;DHT22;49296;48.188;11.566;2022-09-09T14:10:32;20.63;57.97
63202;DHT22;49296;48.188;11.566;2022-09-09T14:13:01;20.60;59.08
63202;DHT22;49296;48.188;11.566;2022-09-09T14:15:27;20.74;58.37
63202;DHT22;49296;48.188;11.566;2022-09-09T14:17:53;20.65;58.65
63202;DHT22;49296;48.188;11.566;2022-09-09T14:20:20;20.70;58.64
63202;DHT22;49296;48.188;11.566;2022-09-09T14:22:46;20.77;58.66
63202;DHT22;49296;48.188;11.566;2022-09-09T14:25:14;20.68;58.60
63202;DHT22;49296;48.188;11.566;2022-09-09T14:27:41;20.51;59.17
63202;DHT22;49296;48.188;11.566;2022-09-09T14:30:08;20.28;59.78
63202;DHT22;49296;48.188;11.566;2022-09-09T14:32:35;20.25;59.70
63202;DHT22;49296;48.188;11.566;2022-09-09T14:35:02;20.20;58.99
63202;DHT22;49296;48.188;11.566;2022-09-09T14:37:28;20.30;59.11
63202;DHT22;49296;48.188;11.566;2022-09-09T14:39:56;20.25;59.41
63202;DHT22;49296;48.188;11.566;2022-09-09T14:42:24;20.22;59.84
63202;DHT22;49296;48.188;11.566;2022-09-09T14:44:51;20.05;60.17
63202;DHT22;49296;48.188;11.566;2022-09-09T14:47:17;19.84;60.30
63202;DHT22;49296;48.188;11.566;2022-09-09T14:49:43;19.77;60.48
63202;DHT22;49296;48.188;11.566;2022-09-09T14:52:10;19.77;60.46
63202;DHT22;49296;48.188;11.566;2022-09-09T14:54:37;19.74;60.46
63202;DHT22;49296;48.188;11.566;2022-09-09T14:57:04;19.64;60.17
63202;DHT22;49296;48.188;11.566;2022-09-09T14:59:31;19.61;60.73
63202;DHT22;49296;48.188;11.566;2022-09-09T15:01:59;19.57;60.76
63202;DHT22;49296;48.188;11.566;2022-09-09T15:04:29;19.56;60.79
63202;DHT22;49296;48.188;11.566;2022-09-09T15:06:55;19.54;60.74
63202;DHT22;49296;48.188;11.566;2022-09-09T15:09:22;19.61;60.67
63202;DHT22;49296;48.188;11.566;2022-09-09T15:11:48;19.66;60.63
63202;DHT22;49296;48.188;11.566;2022-09-09T15:14:15;19.63;60.36
63202;DHT22;49296;48.188;11.566;2022-09-09T15:16:43;19.56;60.74
63202;DHT22;49296;48.188;11.566;2022-09-09T15:19:10;19.37;60.94
63202;DHT22;49296;48.188;11.566;2022-09-09T15:21:36;19.45;60.43
63202;DHT22;49296;48.188;11.566;2022-09-09T15:24:04;19.68;60.04
63202;DHT22;49296;48.188;11.566;2022-09-09T15:26:32;19.75;59.84
63202;DHT22;49296;48.188;11.566;2022-09-09T15:28:59;19.84;59.60
63202;DHT22;49296;48.188;11.566;2022-09-09T15:31:26;20.01;59.16
63202;DHT22;49296;48.188;11.566;2022-09-09T15:33:55;20.01;58.26
63202;DHT22;49296;48.188;11.566;2022-09-09T15:36:26;20.15;58.29